sensor_id;sensor_type;location;lat;lon;timestamp;pressure;altitude;pressure_sealevel;temperature;humidity
83836;BME280;73859;40.830;43.828;2024-01-30T00:00:35;84639.44;;;-7.20;61.08
83836;BME280;73859;40.830;43.828;2024-01-30T00:03:03;84630.41;;;-7.17;59.87
83836;BME280;73859;40.830;43.828;2024-01-30T00:05:30;84629.38;;;-7.20;61.01
83836;BME280;73859;40.830;43.828;2024-01-30T00:07:57;84639.84;;;-7.21;59.28
83836;BME280;73859;40.830;43.828;2024-01-30T00:10:25;84634.69;;;-7.34;59.39
83836;BME280;73859;40.830;43.828;2024-01-30T00:12:52;84636.25;;;-7.40;60.87
83836;BME280;73859;40.830;43.828;2024-01-30T00:15:20;84634.50;;;-7.43;61.71
83836;BME280;73859;40.830;43.828;2024-01-30T00:17:47;84641.22;;;-7.36;61.18
83836;BME280;73859;40.830;43.828;2024-01-30T00:20:15;84629.28;;;-7.32;60.27
83836;BME280;73859;40.830;43.828;2024-01-30T00:22:43;84631.69;;;-7.45;61.18
83836;BME280;73859;40.830;43.828;2024-01-30T00:25:10;84629.63;;;-7.50;59.67
83836;BME280;73859;40.830;43.828;2024-01-30T00:27:37;84631.53;;;-7.54;60.07
83836;BME280;73859;40.830;43.828;2024-01-30T00:30:05;84621.41;;;-7.51;60.48
83836;BME280;73859;40.830;43.828;2024-01-30T00:32:33;84629.25;;;-7.49;60.20
83836;BME280;73859;40.830;43.828;2024-01-30T00:35:01;84603.19;;;-7.55;59.99
83836;BME280;73859;40.830;43.828;2024-01-30T00:37:29;84639.50;;;-7.39;59.38
83836;BME280;73859;40.830;43.828;2024-01-30T00:39:58;84628.81;;;-7.43;59.21
83836;BME280;73859;40.830;43.828;2024-01-30T00:42:25;84626.88;;;-7.56;59.36
83836;BME280;73859;40.830;43.828;2024-01-30T00:44:53;84624.31;;;-7.72;59.12
83836;BME280;73859;40.830;43.828;2024-01-30T00:47:20;84630.25;;;-7.82;58.80
83836;BME280;73859;40.830;43.828;2024-01-30T00:49:48;84627.03;;;-7.82;59.58
83836;BME280;73859;40.830;43.828;2024-01-30T00:52:15;84630.56;;;-7.80;60.10
83836;BME280;73859;40.830;43.828;2024-01-30T00:54:42;84627.03;;;-7.82;59.72
83836;BME280;73859;40.830;43.828;2024-01-30T00:57:10;84637.63;;;-7.75;59.35
83836;BME280;73859;40.830;43.828;2024-01-30T00:59:37;84632.31;;;-7.77;59.44
83836;BME280;73859;40.830;43.828;2024-01-30T01:02:05;84629.09;;;-7.77;59.77
83836;BME280;73859;40.830;43.828;2024-01-30T01:04:32;84630.56;;;-7.80;59.66
83836;BME280;73859;40.830;43.828;2024-01-30T01:07:00;84630.56;;;-7.80;59.75
83836;BME280;73859;40.830;43.828;2024-01-30T01:09:27;84640.72;;;-7.67;59.59
83836;BME280;73859;40.830;43.828;2024-01-30T01:11:55;84639.94;;;-7.64;58.91
83836;BME280;73859;40.830;43.828;2024-01-30T01:14:22;84632.09;;;-7.66;58.31
83836;BME280;73859;40.830;43.828;2024-01-30T01:16:49;84638.75;;;-7.76;58.94
83836;BME280;73859;40.830;43.828;2024-01-30T01:19:17;84589.53;;;-8.09;59.31
83836;BME280;73859;40.830;43.828;2024-01-30T01:21:44;84620.66;;;-7.87;59.52
83836;BME280;73859;40.830;43.828;2024-01-30T01:24:12;84634.03;;;-7.74;59.54
83836;BME280;73859;40.830;43.828;2024-01-30T01:26:39;84641.00;;;-7.62;59.05
83836;BME280;73859;40.830;43.828;2024-01-30T01:29:07;84639.00;;;-7.51;58.63
83836;BME280;73859;40.830;43.828;2024-01-30T01:31:39;84636.41;;;-7.47;58.69
83836;BME280;73859;40.830;43.828;2024-01-30T01:34:11;84642.03;;;-7.43;59.15
83836;BME280;73859;40.830;43.828;2024-01-30T01:36:39;84645.13;;;-7.35;58.43
83836;BME280;73859;40.830;43.828;2024-01-30T01:39:07;84645.75;;;-7.31;57.97
83836;BME280;73859;40.830;43.828;2024-01-30T01:41:35;84614.56;;;-7.50;58.60
83836;BME280;73859;40.830;43.828;2024-01-30T01:44:03;84647.19;;;-7.30;58.67
83836;BME280;73859;40.830;43.828;2024-01-30T01:46:32;84635.34;;;-7.30;58.49
83836;BME280;73859;40.830;43.828;2024-01-30T01:49:01;84646.41;;;-7.27;57.82
83836;BME280;73859;40.830;43.828;2024-01-30T01:51:30;84642.22;;;-7.34;58.80
83836;BME280;73859;40.830;43.828;2024-01-30T01:54:04;84635.94;;;-7.42;59.08
83836;BME280;73859;40.830;43.828;2024-01-30T01:56:33;84642.38;;;-7.41;59.10
83836;BME280;73859;40.830;43.828;2024-01-30T01:59:05;84576.88;;;-7.86;58.27
83836;BME280;73859;40.830;43.828;2024-01-30T02:01:36;84642.38;;;-7.41;58.52
83836;BME280;73859;40.830;43.828;2024-01-30T02:04:04;84651.91;;;-7.32;58.14
83836;BME280;73859;40.830;43.828;2024-01-30T02:06:32;84640.44;;;-7.33;57.50
83836;BME280;73859;40.830;43.828;2024-01-30T02:09:00;84652.81;;;-7.43;57.90
83836;BME280;73859;40.830;43.828;2024-01-30T02:11:28;84651.69;;;-7.58;57.11
83836;BME280;73859;40.830;43.828;2024-01-30T02:13:55;84651.78;;;-7.65;58.08
83836;BME280;73859;40.830;43.828;2024-01-30T02:16:23;84653.63;;;-7.65;58.04
83836;BME280;73859;40.830;43.828;2024-01-30T02:18:50;84642.47;;;-7.64;58.19
83836;BME280;73859;40.830;43.828;2024-01-30T02:21:18;84655.66;;;-7.60;57.74
83836;BME280;73859;40.830;43.828;2024-01-30T02:23:47;84655.78;;;-7.67;58.75
83836;BME280;73859;40.830;43.828;2024-01-30T02:26:15;84643.78;;;-7.76;58.86
83836;BME280;73859;40.830;43.828;2024-01-30T02:28:43;84666.78;;;-7.41;57.76
83836;BME280;73859;40.830;43.828;2024-01-30T02:31:10;84675.34;;;-7.39;57.87
83836;BME280;73859;40.830;43.828;2024-01-30T02:33:38;84672.25;;;-7.47;57.93
83836;BME280;73859;40.830;43.828;2024-01-30T02:36:05;84664.84;;;-7.54;58.58
83836;BME280;73859;40.830;43.828;2024-01-30T02:38:33;84666.69;;;-7.54;59.05
83836;BME280;73859;40.830;43.828;2024-01-30T02:41:18;84668.00;;;-7.50;58.68
83836;BME280;73859;40.830;43.828;2024-01-30T02:43:46;84656.75;;;-7.61;58.07
83836;BME280;73859;40.830;43.828;2024-01-30T02:46:14;84671.63;;;-7.51;58.60
83836;BME280;73859;40.830;43.828;2024-01-30T02:48:41;84671.06;;;-7.58;58.60
83836;BME280;73859;40.830;43.828;2024-01-30T02:51:09;84677.22;;;-7.63;57.79
83836;BME280;73859;40.830;43.828;2024-01-30T02:53:36;84686.63;;;-7.67;57.97
83836;BME280;73859;40.830;43.828;2024-01-30T02:56:04;84674.22;;;-7.74;58.31
83836;BME280;73859;40.830;43.828;2024-01-30T02:58:32;84686.44;;;-7.76;58.53
83836;BME280;73859;40.830;43.828;2024-01-30T03:01:00;84675.28;;;-7.75;57.75
83836;BME280;73859;40.830;43.828;2024-01-30T03:03:28;84681.53;;;-7.83;58.23
83836;BME280;73859;40.830;43.828;2024-01-30T03:05:55;84680.19;;;-7.87;57.83
83836;BME280;73859;40.830;43.828;2024-01-30T03:08:22;84691.50;;;-7.99;57.25
83836;BME280;73859;40.830;43.828;2024-01-30T03:10:50;84683.94;;;-8.19;57.41
83836;BME280;73859;40.830;43.828;2024-01-30T03:13:17;84681.69;;;-8.33;57.89
83836;BME280;73859;40.830;43.828;2024-01-30T03:15:45;84690.34;;;-8.37;58.05
83836;BME280;73859;40.830;43.828;2024-01-30T03:18:12;84689.28;;;-8.36;58.29
83836;BME280;73859;40.830;43.828;2024-01-30T03:20:39;84679.72;;;-8.45;58.26
83836;BME280;73859;40.830;43.828;2024-01-30T03:23:07;84628.09;;;-8.85;58.30
83836;BME280;73859;40.830;43.828;2024-01-30T03:25:34;84692.66;;;-8.47;57.66
83836;BME280;73859;40.830;43.828;2024-01-30T03:28:02;84681.66;;;-8.53;57.93
83836;BME280;73859;40.830;43.828;2024-01-30T03:30:30;84693.84;;;-8.55;57.82
83836;BME280;73859;40.830;43.828;2024-01-30T03:32:57;84686.34;;;-8.55;58.90
83836;BME280;73859;40.830;43.828;2024-01-30T03:35:24;84661.47;;;-8.69;58.84
83836;BME280;73859;40.830;43.828;2024-01-30T03:37:52;84679.78;;;-8.49;58.99
83836;BME280;73859;40.830;43.828;2024-01-30T03:40:19;84691.66;;;-8.29;58.90
83836;BME280;73859;40.830;43.828;2024-01-30T03:42:47;84697.44;;;-8.32;58.59
83836;BME280;73859;40.830;43.828;2024-01-30T03:45:15;84696.59;;;-8.26;58.32
83836;BME280;73859;40.830;43.828;2024-01-30T03:47:43;84704.59;;;-8.31;58.16
83836;BME280;73859;40.830;43.828;2024-01-30T03:50:11;84647.81;;;-8.64;57.67
83836;BME280;73859;40.830;43.828;2024-01-30T03:52:38;84572.16;;;-9.25;58.44
83836;BME280;73859;40.830;43.828;2024-01-30T03:55:06;84705.19;;;-8.23;58.26
83836;BME280;73859;40.830;43.828;2024-01-30T03:57:33;84715.22;;;-8.23;58.24
83836;BME280;73859;40.830;43.828;2024-01-30T04:00:01;84706.06;;;-8.33;57.93
83836;BME280;73859;40.830;43.828;2024-01-30T04:02:37;84692.72;;;-8.50;58.03
83836;BME280;73859;40.830;43.828;2024-01-30T04:05:05;84704.66;;;-8.34;58.27
83836;BME280;73859;40.830;43.828;2024-01-30T04:07:33;84707.44;;;-8.29;57.97
83836;BME280;73859;40.830;43.828;2024-01-30T04:10:01;84703.81;;;-8.28;58.47
83836;BME280;73859;40.830;43.828;2024-01-30T04:12:28;84701.97;;;-8.24;57.76
83836;BME280;73859;40.830;43.828;2024-01-30T04:14:56;84702.97;;;-8.21;57.97
83836;BME280;73859;40.830;43.828;2024-01-30T04:17:23;84694.63;;;-8.15;57.88
83836;BME280;73859;40.830;43.828;2024-01-30T04:19:50;84696.84;;;-7.97;57.98
83836;BME280;73859;40.830;43.828;2024-01-30T04:22:18;84700.22;;;-7.84;58.23
83836;BME280;73859;40.830;43.828;2024-01-30T04:24:45;84714.94;;;-7.86;58.52
83836;BME280;73859;40.830;43.828;2024-01-30T04:27:13;84715.00;;;-7.89;57.66
83836;BME280;73859;40.830;43.828;2024-01-30T04:29:40;84707.59;;;-7.97;58.12
83836;BME280;73859;40.830;43.828;2024-01-30T04:32:08;84707.66;;;-8.00;57.37
83836;BME280;73859;40.830;43.828;2024-01-30T04:34:36;84711.19;;;-7.98;57.00
83836;BME280;73859;40.830;43.828;2024-01-30T04:37:04;84715.72;;;-8.12;56.20
83836;BME280;73859;40.830;43.828;2024-01-30T04:39:34;84723.09;;;-8.25;56.66
83836;BME280;73859;40.830;43.828;2024-01-30T04:42:02;84711.59;;;-8.22;57.51
83836;BME280;73859;40.830;43.828;2024-01-30T04:44:32;84732.09;;;-8.04;57.43
83836;BME280;73859;40.830;43.828;2024-01-30T04:47:00;84712.50;;;-7.89;57.29
83836;BME280;73859;40.830;43.828;2024-01-30T04:49:28;84706.47;;;-7.72;57.27
83836;BME280;73859;40.830;43.828;2024-01-30T04:51:56;84716.84;;;-7.51;57.25
83836;BME280;73859;40.830;43.828;2024-01-30T04:54:24;84613.84;;;-8.06;57.04
83836;BME280;73859;40.830;43.828;2024-01-30T04:56:51;84692.28;;;-7.43;56.59
83836;BME280;73859;40.830;43.828;2024-01-30T04:59:18;84727.16;;;-7.09;56.24
83836;BME280;73859;40.830;43.828;2024-01-30T05:01:46;84726.72;;;-7.04;56.05
83836;BME280;73859;40.830;43.828;2024-01-30T05:04:13;84729.66;;;-6.89;56.08
83836;BME280;73859;40.830;43.828;2024-01-30T05:06:43;84737.16;;;-6.70;55.62
83836;BME280;73859;40.830;43.828;2024-01-30T05:09:11;84752.19;;;-6.50;55.45
83836;BME280;73859;40.830;43.828;2024-01-30T05:11:40;84752.06;;;-6.43;55.29
83836;BME280;73859;40.830;43.828;2024-01-30T05:14:07;84746.31;;;-6.43;55.54
83836;BME280;73859;40.830;43.828;2024-01-30T05:16:39;84744.13;;;-6.41;55.11
83836;BME280;73859;40.830;43.828;2024-01-30T05:19:06;84628.88;;;-7.31;54.97
83836;BME280;73859;40.830;43.828;2024-01-30T05:21:34;84754.94;;;-6.45;55.00
83836;BME280;73859;40.830;43.828;2024-01-30T05:24:01;84756.94;;;-6.36;54.99
83836;BME280;73859;40.830;43.828;2024-01-30T05:26:29;84748.75;;;-6.08;54.82
83836;BME280;73859;40.830;43.828;2024-01-30T05:28:57;84756.53;;;-5.86;53.81
83836;BME280;73859;40.830;43.828;2024-01-30T05:31:24;84751.94;;;-5.75;54.04
83836;BME280;73859;40.830;43.828;2024-01-30T05:33:54;84762.28;;;-5.57;54.09
83836;BME280;73859;40.830;43.828;2024-01-30T05:36:22;84743.34;;;-5.61;54.82
83836;BME280;73859;40.830;43.828;2024-01-30T05:38:49;84670.16;;;-5.99;54.02
83836;BME280;73859;40.830;43.828;2024-01-30T05:41:17;84761.03;;;-5.20;54.16
83836;BME280;73859;40.830;43.828;2024-01-30T05:43:44;84754.25;;;-4.94;53.24
83836;BME280;73859;40.830;43.828;2024-01-30T05:46:11;84755.88;;;-4.87;52.43
83836;BME280;73859;40.830;43.828;2024-01-30T05:48:39;84755.16;;;-4.88;52.70
83836;BME280;73859;40.830;43.828;2024-01-30T05:51:07;84763.25;;;-4.80;52.57
83836;BME280;73859;40.830;43.828;2024-01-30T05:53:35;84764.25;;;-4.90;53.33
83836;BME280;73859;40.830;43.828;2024-01-30T05:56:03;84765.13;;;-4.97;53.31
83836;BME280;73859;40.830;43.828;2024-01-30T05:58:30;84751.81;;;-5.10;53.78
83836;BME280;73859;40.830;43.828;2024-01-30T06:01:01;84672.72;;;-5.58;54.10
83836;BME280;73859;40.830;43.828;2024-01-30T06:03:28;84752.16;;;-4.96;54.11
83836;BME280;73859;40.830;43.828;2024-01-30T06:05:56;84762.72;;;-4.88;53.92
83836;BME280;73859;40.830;43.828;2024-01-30T06:08:23;84764.16;;;-4.87;53.80
83836;BME280;73859;40.830;43.828;2024-01-30T06:10:50;84761.34;;;-4.76;53.16
83836;BME280;73859;40.830;43.828;2024-01-30T06:13:18;84761.78;;;-4.65;52.97
83836;BME280;73859;40.830;43.828;2024-01-30T06:15:45;84751.16;;;-4.73;53.45
83836;BME280;73859;40.830;43.828;2024-01-30T06:18:13;84668.19;;;-5.09;54.34
83836;BME280;73859;40.830;43.828;2024-01-30T06:20:40;84765.34;;;-4.12;53.09
83836;BME280;73859;40.830;43.828;2024-01-30T06:23:08;84720.00;;;-4.28;52.59
83836;BME280;73859;40.830;43.828;2024-01-30T06:25:36;84764.31;;;-3.77;52.11
83836;BME280;73859;40.830;43.828;2024-01-30T06:28:03;84761.97;;;-3.71;51.82
83836;BME280;73859;40.830;43.828;2024-01-30T06:30:31;84774.59;;;-3.71;52.16
83836;BME280;73859;40.830;43.828;2024-01-30T06:32:58;84717.84;;;-3.92;52.28
83836;BME280;73859;40.830;43.828;2024-01-30T06:35:26;84771.41;;;-3.37;51.46
83836;BME280;73859;40.830;43.828;2024-01-30T06:37:55;84766.00;;;-3.14;51.08
83836;BME280;73859;40.830;43.828;2024-01-30T06:40:23;84762.19;;;-3.31;51.00
83836;BME280;73859;40.830;43.828;2024-01-30T06:42:50;84769.66;;;-3.28;51.50
83836;BME280;73859;40.830;43.828;2024-01-30T06:45:18;84766.50;;;-3.19;50.99
83836;BME280;73859;40.830;43.828;2024-01-30T06:47:45;84758.22;;;-3.20;51.13
83836;BME280;73859;40.830;43.828;2024-01-30T06:50:13;84769.56;;;-3.24;51.49
83836;BME280;73859;40.830;43.828;2024-01-30T06:52:41;84774.16;;;-3.32;51.92
83836;BME280;73859;40.830;43.828;2024-01-30T06:55:09;84770.47;;;-3.18;51.63
83836;BME280;73859;40.830;43.828;2024-01-30T06:57:36;84768.78;;;-3.00;52.08
83836;BME280;73859;40.830;43.828;2024-01-30T07:00:04;84776.31;;;-2.87;51.61
83836;BME280;73859;40.830;43.828;2024-01-30T07:02:32;84684.69;;;-3.25;52.07
83836;BME280;73859;40.830;43.828;2024-01-30T07:04:59;84768.81;;;-2.47;52.07
83836;BME280;73859;40.830;43.828;2024-01-30T07:07:27;84753.22;;;-2.45;51.70
83836;BME280;73859;40.830;43.828;2024-01-30T07:09:55;84719.25;;;-2.57;51.79
83836;BME280;73859;40.830;43.828;2024-01-30T07:12:24;84782.59;;;-2.26;51.66
83836;BME280;73859;40.830;43.828;2024-01-30T07:14:53;84769.84;;;-2.44;52.07
83836;BME280;73859;40.830;43.828;2024-01-30T07:17:20;84772.31;;;-2.75;51.79
83836;BME280;73859;40.830;43.828;2024-01-30T07:19:48;84771.66;;;-2.67;52.26
83836;BME280;73859;40.830;43.828;2024-01-30T07:22:16;84725.44;;;-2.80;52.21
83836;BME280;73859;40.830;43.828;2024-01-30T07:24:43;84674.97;;;-3.05;52.18
83836;BME280;73859;40.830;43.828;2024-01-30T07:27:16;84655.25;;;-2.88;51.66
83836;BME280;73859;40.830;43.828;2024-01-30T07:29:45;84779.22;;;-1.92;51.03
83836;BME280;73859;40.830;43.828;2024-01-30T07:32:12;84768.66;;;-1.91;50.73
83836;BME280;73859;40.830;43.828;2024-01-30T07:34:39;84697.25;;;-2.38;50.71
83836;BME280;73859;40.830;43.828;2024-01-30T07:37:24;84699.66;;;-2.35;49.77
83836;BME280;73859;40.830;43.828;2024-01-30T07:39:52;84769.00;;;-1.71;50.63
83836;BME280;73859;40.830;43.828;2024-01-30T07:42:19;84777.09;;;-1.54;50.66
83836;BME280;73859;40.830;43.828;2024-01-30T07:44:47;84769.63;;;-1.49;49.57
83836;BME280;73859;40.830;43.828;2024-01-30T07:47:14;84774.44;;;-1.41;50.02
83836;BME280;73859;40.830;43.828;2024-01-30T07:49:42;84754.13;;;-1.51;50.45
83836;BME280;73859;40.830;43.828;2024-01-30T07:52:10;84776.44;;;-1.27;50.42
83836;BME280;73859;40.830;43.828;2024-01-30T07:54:40;84778.16;;;-1.15;49.90
83836;BME280;73859;40.830;43.828;2024-01-30T07:57:09;84772.66;;;-1.14;50.06
83836;BME280;73859;40.830;43.828;2024-01-30T07:59:37;84773.09;;;-1.06;50.33
83836;BME280;73859;40.830;43.828;2024-01-30T08:02:04;84771.81;;;-1.02;48.98
83836;BME280;73859;40.830;43.828;2024-01-30T08:04:31;84770.41;;;-1.12;48.87
83836;BME280;73859;40.830;43.828;2024-01-30T08:06:59;84764.03;;;-1.16;48.51
83836;BME280;73859;40.830;43.828;2024-01-30T08:09:27;84770.38;;;-1.30;48.09
83836;BME280;73859;40.830;43.828;2024-01-30T08:11:54;84775.44;;;-1.39;47.91
83836;BME280;73859;40.830;43.828;2024-01-30T08:14:22;84753.53;;;-1.64;48.82
83836;BME280;73859;40.830;43.828;2024-01-30T08:16:49;84773.91;;;-1.36;48.60
83836;BME280;73859;40.830;43.828;2024-01-30T08:19:16;84782.50;;;-1.34;47.76
83836;BME280;73859;40.830;43.828;2024-01-30T08:21:44;84760.63;;;-1.50;48.07
83836;BME280;73859;40.830;43.828;2024-01-30T08:24:11;84716.03;;;-1.78;48.05
83836;BME280;73859;40.830;43.828;2024-01-30T08:26:39;84698.81;;;-2.01;48.08
83836;BME280;73859;40.830;43.828;2024-01-30T08:29:06;84765.72;;;-1.50;48.77
83836;BME280;73859;40.830;43.828;2024-01-30T08:31:34;84761.47;;;-1.34;48.43
83836;BME280;73859;40.830;43.828;2024-01-30T08:34:02;84756.16;;;-1.18;49.06
83836;BME280;73859;40.830;43.828;2024-01-30T08:36:30;84751.34;;;-1.16;48.23
83836;BME280;73859;40.830;43.828;2024-01-30T08:38:57;84749.09;;;-1.23;48.54
83836;BME280;73859;40.830;43.828;2024-01-30T08:41:30;84726.84;;;-1.28;48.69
83836;BME280;73859;40.830;43.828;2024-01-30T08:43:57;84739.81;;;-1.08;48.22
83836;BME280;73859;40.830;43.828;2024-01-30T08:46:24;84735.47;;;-0.98;47.88
83836;BME280;73859;40.830;43.828;2024-01-30T08:48:52;84738.81;;;-1.02;48.12
83836;BME280;73859;40.830;43.828;2024-01-30T08:51:20;84730.78;;;-1.00;47.93
83836;BME280;73859;40.830;43.828;2024-01-30T08:53:48;84740.25;;;-0.91;47.62
83836;BME280;73859;40.830;43.828;2024-01-30T08:56:15;84738.53;;;-0.94;47.96
83836;BME280;73859;40.830;43.828;2024-01-30T08:58:43;84719.38;;;-1.05;46.91
83836;BME280;73859;40.830;43.828;2024-01-30T09:01:11;84723.31;;;-0.94;47.63
83836;BME280;73859;40.830;43.828;2024-01-30T09:03:38;84721.03;;;-0.83;47.33
83836;BME280;73859;40.830;43.828;2024-01-30T09:06:11;84712.19;;;-0.88;47.35
83836;BME280;73859;40.830;43.828;2024-01-30T09:08:39;84667.31;;;-1.09;47.54
83836;BME280;73859;40.830;43.828;2024-01-30T09:11:11;84732.03;;;-0.68;47.11
83836;BME280;73859;40.830;43.828;2024-01-30T09:13:39;84732.34;;;-0.66;47.25
83836;BME280;73859;40.830;43.828;2024-01-30T09:16:07;84732.19;;;-0.63;46.85
83836;BME280;73859;40.830;43.828;2024-01-30T09:18:34;84726.09;;;-0.65;47.26
83836;BME280;73859;40.830;43.828;2024-01-30T09:21:02;84714.13;;;-0.65;46.90
83836;BME280;73859;40.830;43.828;2024-01-30T09:23:30;84716.63;;;-0.46;46.85
83836;BME280;73859;40.830;43.828;2024-01-30T09:25:57;84712.38;;;-0.31;46.47
83836;BME280;73859;40.830;43.828;2024-01-30T09:28:25;84724.50;;;-0.35;46.19
83836;BME280;73859;40.830;43.828;2024-01-30T09:30:53;84717.91;;;-0.42;46.52
83836;BME280;73859;40.830;43.828;2024-01-30T09:33:21;84602.50;;;-1.10;46.66
83836;BME280;73859;40.830;43.828;2024-01-30T09:35:48;84711.44;;;-0.10;46.82
83836;BME280;73859;40.830;43.828;2024-01-30T09:38:16;84727.97;;;-0.06;45.93
83836;BME280;73859;40.830;43.828;2024-01-30T09:40:44;84721.88;;;0.01;46.54
83836;BME280;73859;40.830;43.828;2024-01-30T09:43:21;84706.63;;;0.01;46.92
83836;BME280;73859;40.830;43.828;2024-01-30T09:45:53;84703.38;;;0.00;46.92
83836;BME280;73859;40.830;43.828;2024-01-30T09:48:21;84715.63;;;0.11;47.15
83836;BME280;73859;40.830;43.828;2024-01-30T09:50:50;84716.22;;;0.06;45.96
83836;BME280;73859;40.830;43.828;2024-01-30T09:53:18;84715.25;;;0.04;46.57
83836;BME280;73859;40.830;43.828;2024-01-30T09:55:47;84721.06;;;0.28;46.54
83836;BME280;73859;40.830;43.828;2024-01-30T09:58:14;84709.06;;;1.38;44.72
83836;BME280;73859;40.830;43.828;2024-01-30T10:00:42;84623.63;;;1.72;42.86
83836;BME280;73859;40.830;43.828;2024-01-30T10:03:10;84715.44;;;2.85;41.91
83836;BME280;73859;40.830;43.828;2024-01-30T10:05:40;84639.81;;;2.73;40.88
83836;BME280;73859;40.830;43.828;2024-01-30T10:08:08;84711.69;;;3.41;39.83
83836;BME280;73859;40.830;43.828;2024-01-30T10:10:35;84708.50;;;3.98;41.41
83836;BME280;73859;40.830;43.828;2024-01-30T10:13:04;84707.50;;;4.47;40.70
83836;BME280;73859;40.830;43.828;2024-01-30T10:15:32;84702.47;;;4.64;40.28
83836;BME280;73859;40.830;43.828;2024-01-30T10:18:02;84703.56;;;4.88;40.17
83836;BME280;73859;40.830;43.828;2024-01-30T10:20:30;84704.56;;;5.02;39.53
83836;BME280;73859;40.830;43.828;2024-01-30T10:22:57;84709.06;;;5.18;39.14
83836;BME280;73859;40.830;43.828;2024-01-30T10:25:25;84697.22;;;5.26;37.57
83836;BME280;73859;40.830;43.828;2024-01-30T10:27:53;84706.06;;;5.25;36.20
83836;BME280;73859;40.830;43.828;2024-01-30T10:30:24;84650.81;;;4.71;39.49
83836;BME280;73859;40.830;43.828;2024-01-30T10:32:52;84629.03;;;4.98;38.65
83836;BME280;73859;40.830;43.828;2024-01-30T10:35:19;84701.66;;;5.90;38.14
83836;BME280;73859;40.830;43.828;2024-01-30T10:37:47;84702.31;;;5.85;37.73
83836;BME280;73859;40.830;43.828;2024-01-30T10:40:16;84646.31;;;5.78;37.79
83836;BME280;73859;40.830;43.828;2024-01-30T10:42:45;84690.72;;;6.12;36.38
83836;BME280;73859;40.830;43.828;2024-01-30T10:45:13;84697.94;;;6.19;37.00
83836;BME280;73859;40.830;43.828;2024-01-30T10:47:54;84705.94;;;6.55;37.22
83836;BME280;73859;40.830;43.828;2024-01-30T10:50:25;84702.66;;;6.26;36.20
83836;BME280;73859;40.830;43.828;2024-01-30T10:52:54;84709.19;;;5.46;37.34
83836;BME280;73859;40.830;43.828;2024-01-30T10:55:22;84665.81;;;4.83;38.31
83836;BME280;73859;40.830;43.828;2024-01-30T10:57:51;84708.13;;;5.16;38.11
83836;BME280;73859;40.830;43.828;2024-01-30T11:00:19;84706.00;;;5.09;38.44
83836;BME280;73859;40.830;43.828;2024-01-30T11:02:50;84711.16;;;5.14;36.33
83836;BME280;73859;40.830;43.828;2024-01-30T11:05:25;84694.97;;;5.51;37.57
83836;BME280;73859;40.830;43.828;2024-01-30T11:08:11;84697.72;;;6.01;36.85
83836;BME280;73859;40.830;43.828;2024-01-30T11:10:48;84700.97;;;6.12;36.61
83836;BME280;73859;40.830;43.828;2024-01-30T11:13:18;84708.75;;;6.62;36.90
83836;BME280;73859;40.830;43.828;2024-01-30T11:15:47;84695.41;;;6.92;35.98
83836;BME280;73859;40.830;43.828;2024-01-30T11:18:25;84697.88;;;7.30;35.59
83836;BME280;73859;40.830;43.828;2024-01-30T11:20:56;84703.66;;;7.53;35.42
83836;BME280;73859;40.830;43.828;2024-01-30T11:23:23;84703.59;;;7.75;35.02
83836;BME280;73859;40.830;43.828;2024-01-30T11:25:53;84653.28;;;7.69;34.79
83836;BME280;73859;40.830;43.828;2024-01-30T11:28:22;84704.97;;;8.34;34.49
83836;BME280;73859;40.830;43.828;2024-01-30T11:30:50;84698.16;;;8.31;32.65
83836;BME280;73859;40.830;43.828;2024-01-30T11:33:30;84711.41;;;7.48;31.89
83836;BME280;73859;40.830;43.828;2024-01-30T11:36:01;84699.25;;;7.43;34.64
83836;BME280;73859;40.830;43.828;2024-01-30T11:38:34;84705.59;;;7.99;34.38
83836;BME280;73859;40.830;43.828;2024-01-30T11:41:02;84708.41;;;8.48;33.59
83836;BME280;73859;40.830;43.828;2024-01-30T11:43:30;84704.78;;;7.69;32.51
83836;BME280;73859;40.830;43.828;2024-01-30T11:45:59;84706.88;;;7.76;34.28
83836;BME280;73859;40.830;43.828;2024-01-30T11:48:27;84709.97;;;8.15;34.33
83836;BME280;73859;40.830;43.828;2024-01-30T11:50:55;84700.66;;;8.48;33.34
83836;BME280;73859;40.830;43.828;2024-01-30T11:53:22;84691.91;;;8.56;33.50
83836;BME280;73859;40.830;43.828;2024-01-30T11:55:50;84656.41;;;8.73;32.87
83836;BME280;73859;40.830;43.828;2024-01-30T11:58:18;84699.63;;;9.21;32.63
83836;BME280;73859;40.830;43.828;2024-01-30T12:00:55;84704.69;;;9.32;31.49
83836;BME280;73859;40.830;43.828;2024-01-30T12:03:23;84699.63;;;9.21;32.23
83836;BME280;73859;40.830;43.828;2024-01-30T12:05:58;84704.53;;;9.25;30.01
83836;BME280;73859;40.830;43.828;2024-01-30T12:08:30;84663.03;;;9.42;31.46
83836;BME280;73859;40.830;43.828;2024-01-30T12:10:58;84683.34;;;9.75;31.36
83836;BME280;73859;40.830;43.828;2024-01-30T12:13:26;84703.84;;;10.10;31.61
83836;BME280;73859;40.830;43.828;2024-01-30T12:15:59;84721.09;;;10.02;31.28
83836;BME280;73859;40.830;43.828;2024-01-30T12:18:27;84692.50;;;9.76;32.03
83836;BME280;73859;40.830;43.828;2024-01-30T12:21:00;84713.97;;;9.90;30.42
83836;BME280;73859;40.830;43.828;2024-01-30T12:23:28;84698.19;;;9.93;31.47
83836;BME280;73859;40.830;43.828;2024-01-30T12:25:56;84710.31;;;9.98;28.84
83836;BME280;73859;40.830;43.828;2024-01-30T12:28:23;84709.56;;;10.03;31.38
83836;BME280;73859;40.830;43.828;2024-01-30T12:30:55;84679.81;;;9.54;31.05
83836;BME280;73859;40.830;43.828;2024-01-30T12:33:26;84628.25;;;9.24;31.53
83836;BME280;73859;40.830;43.828;2024-01-30T12:35:56;84718.06;;;9.98;31.01
83836;BME280;73859;40.830;43.828;2024-01-30T12:38:30;84723.91;;;9.80;31.95
83836;BME280;73859;40.830;43.828;2024-01-30T12:40:57;84721.03;;;9.65;31.78
83836;BME280;73859;40.830;43.828;2024-01-30T12:43:25;84723.78;;;9.48;31.61
83836;BME280;73859;40.830;43.828;2024-01-30T12:46:05;84728.31;;;9.12;31.86
83836;BME280;73859;40.830;43.828;2024-01-30T12:48:33;84725.81;;;9.01;32.32
83836;BME280;73859;40.830;43.828;2024-01-30T12:51:01;84641.81;;;8.52;32.19
83836;BME280;73859;40.830;43.828;2024-01-30T12:53:29;84671.53;;;8.88;32.51
83836;BME280;73859;40.830;43.828;2024-01-30T12:55:56;84725.63;;;9.23;32.34
83836;BME280;73859;40.830;43.828;2024-01-30T12:58:24;84730.53;;;8.97;32.45